sensor_id;sensor_type;location;lat;lon;timestamp;pressure;altitude;pressure_sealevel;temperature;humidity
47104;BME280;32853;52.164;5.400;2022-11-23T00:01:34;99432.41;;;10.42;100.00
47104;BME280;32853;52.164;5.400;2022-11-23T00:04:09;99344.28;;;10.16;100.00
47104;BME280;32853;52.164;5.400;2022-11-23T00:06:56;99418.47;;;10.56;100.00
47104;BME280;32853;52.164;5.400;2022-11-23T00:09:27;99402.81;;;10.42;100.00
47104;BME280;32853;52.164;5.400;2022-11-23T00:11:56;99412.34;;;10.43;100.00
47104;BME280;32853;52.164;5.400;2022-11-23T00:14:22;99350.91;;;10.07;100.00
47104;BME280;32853;52.164;5.400;2022-11-23T00:16:48;99337.94;;;10.06;100.00
47104;BME280;32853;52.164;5.400;2022-11-23T00:19:13;99398.53;;;10.27;100.00
47104;BME280;32853;52.164;5.400;2022-11-23T00:21:49;99422.78;;;10.57;100.00
47104;BME280;32853;52.164;5.400;2022-11-23T00:24:17;99429.78;;;10.57;100.00
47104;BME280;32853;52.164;5.400;2022-11-23T00:26:46;99399.94;;;10.32;100.00
47104;BME280;32853;52.164;5.400;2022-11-23T00:29:29;99444.13;;;10.64;100.00
47104;BME280;32853;52.164;5.400;2022-11-23T00:31:57;99408.63;;;10.33;100.00
47104;BME280;32853;52.164;5.400;2022-11-23T00:34:37;99363.63;;;10.13;100.00
47104;BME280;32853;52.164;5.400;2022-11-23T00:37:02;99415.91;;;10.42;100.00
47104;BME280;32853;52.164;5.400;2022-11-23T00:39:28;99458.97;;;10.63;100.00
47104;BME280;32853;52.164;5.400;2022-11-23T00:41:53;99370.44;;;10.02;100.00
47104;BME280;32853;52.164;5.400;2022-11-23T00:44:18;99385.00;;;10.20;100.00
47104;BME280;32853;52.164;5.400;2022-11-23T00:46:46;99336.75;;;9.97;100.00
47104;BME280;32853;52.164;5.400;2022-11-23T00:49:20;99452.63;;;10.67;100.00
47104;BME280;32853;52.164;5.400;2022-11-23T00:51:47;99474.13;;;10.58;100.00
47104;BME280;32853;52.164;5.400;2022-11-23T00:54:23;99428.75;;;10.45;100.00
47104;BME280;32853;52.164;5.400;2022-11-23T00:56:49;99439.03;;;10.48;100.00
47104;BME280;32853;52.164;5.400;2022-11-23T00:59:16;99443.03;;;10.54;100.00
47104;BME280;32853;52.164;5.400;2022-11-23T01:01:43;99464.78;;;10.54;100.00
47104;BME280;32853;52.164;5.400;2022-11-23T01:04:08;99480.38;;;10.56;100.00
47104;BME280;32853;52.164;5.400;2022-11-23T01:06:38;99434.84;;;10.31;100.00
47104;BME280;32853;52.164;5.400;2022-11-23T01:09:16;99476.94;;;10.55;100.00
47104;BME280;32853;52.164;5.400;2022-11-23T01:11:42;99455.44;;;10.50;100.00
47104;BME280;32853;52.164;5.400;2022-11-23T01:14:16;99475.91;;;10.58;100.00
47104;BME280;32853;52.164;5.400;2022-11-23T01:16:42;99363.50;;;9.86;100.00
47104;BME280;32853;52.164;5.400;2022-11-23T01:19:10;99447.91;;;10.31;100.00
47104;BME280;32853;52.164;5.400;2022-11-23T01:21:36;99458.16;;;10.34;100.00
47104;BME280;32853;52.164;5.400;2022-11-23T01:24:10;99456.22;;;10.24;100.00
47104;BME280;32853;52.164;5.400;2022-11-23T01:26:37;99445.00;;;10.22;100.00
47104;BME280;32853;52.164;5.400;2022-11-23T01:29:04;99425.81;;;10.07;100.00
47104;BME280;32853;52.164;5.400;2022-11-23T01:31:30;99459.00;;;10.35;100.00
47104;BME280;32853;52.164;5.400;2022-11-23T01:33:59;99424.25;;;10.18;100.00
47104;BME280;32853;52.164;5.400;2022-11-23T01:36:31;99382.06;;;9.96;100.00
47104;BME280;32853;52.164;5.400;2022-11-23T01:39:03;99367.72;;;9.89;100.00
47104;BME280;32853;52.164;5.400;2022-11-23T01:41:35;99431.53;;;10.13;100.00
47104;BME280;32853;52.164;5.400;2022-11-23T01:44:28;99384.97;;;10.06;100.00
47104;BME280;32853;52.164;5.400;2022-11-23T01:47:07;99432.00;;;10.20;100.00
47104;BME280;32853;52.164;5.400;2022-11-23T01:49:41;99495.50;;;10.65;100.00
47104;BME280;32853;52.164;5.400;2022-11-23T01:52:15;99499.59;;;10.69;100.00
47104;BME280;32853;52.164;5.400;2022-11-23T01:54:50;99372.56;;;9.95;100.00
47104;BME280;32853;52.164;5.400;2022-11-23T01:57:25;99465.16;;;10.48;100.00
47104;BME280;32853;52.164;5.400;2022-11-23T01:59:59;99509.41;;;10.65;100.00
47104;BME280;32853;52.164;5.400;2022-11-23T02:02:32;99407.84;;;10.02;100.00
47104;BME280;32853;52.164;5.400;2022-11-23T02:04:59;99500.72;;;10.51;100.00
47104;BME280;32853;52.164;5.400;2022-11-23T02:07:25;99508.75;;;10.62;100.00
47104;BME280;32853;52.164;5.400;2022-11-23T02:09:52;99452.03;;;10.19;100.00
47104;BME280;32853;52.164;5.400;2022-11-23T02:12:18;99511.09;;;10.66;100.00
47104;BME280;32853;52.164;5.400;2022-11-23T02:14:44;99516.44;;;10.65;100.00
47104;BME280;32853;52.164;5.400;2022-11-23T02:17:10;99438.84;;;10.23;100.00
47104;BME280;32853;52.164;5.400;2022-11-23T02:19:56;99511.75;;;10.70;100.00
47104;BME280;32853;52.164;5.400;2022-11-23T02:22:34;99512.47;;;10.72;100.00
47104;BME280;32853;52.164;5.400;2022-11-23T02:25:10;99511.75;;;10.70;100.00
47104;BME280;32853;52.164;5.400;2022-11-23T02:27:38;99405.88;;;10.06;100.00
47104;BME280;32853;52.164;5.400;2022-11-23T02:30:04;99517.16;;;10.67;100.00
47104;BME280;32853;52.164;5.400;2022-11-23T02:32:29;99515.66;;;10.63;100.00
47104;BME280;32853;52.164;5.400;2022-11-23T02:34:55;99482.72;;;10.32;100.00
47104;BME280;32853;52.164;5.400;2022-11-23T02:37:21;99355.56;;;9.59;100.00
47104;BME280;32853;52.164;5.400;2022-11-23T02:39:51;99462.16;;;10.26;100.00
47104;BME280;32853;52.164;5.400;2022-11-23T02:42:17;99516.41;;;10.51;100.00
47104;BME280;32853;52.164;5.400;2022-11-23T02:47:37;99513.34;;;10.58;100.00
47104;BME280;32853;52.164;5.400;2022-11-23T02:50:02;99466.94;;;10.33;100.00
47104;BME280;32853;52.164;5.400;2022-11-23T02:52:28;99492.25;;;10.33;100.00
47104;BME280;32853;52.164;5.400;2022-11-23T02:54:53;99543.38;;;10.51;100.00
47104;BME280;32853;52.164;5.400;2022-11-23T02:57:18;99534.78;;;10.49;100.00
47104;BME280;32853;52.164;5.400;2022-11-23T02:59:43;99525.84;;;10.53;100.00
47104;BME280;32853;52.164;5.400;2022-11-23T03:02:09;99534.69;;;10.36;100.00
47104;BME280;32853;52.164;5.400;2022-11-23T03:04:34;99536.19;;;10.40;100.00
47104;BME280;32853;52.164;5.400;2022-11-23T03:06:59;99501.47;;;10.24;100.00
47104;BME280;32853;52.164;5.400;2022-11-23T03:09:25;99509.84;;;10.29;100.00
47104;BME280;32853;52.164;5.400;2022-11-23T03:11:51;99530.59;;;10.46;100.00
47104;BME280;32853;52.164;5.400;2022-11-23T03:14:20;99536.31;;;10.53;100.00
47104;BME280;32853;52.164;5.400;2022-11-23T03:16:46;99539.56;;;10.42;100.00
47104;BME280;32853;52.164;5.400;2022-11-23T03:19:11;99534.16;;;10.45;100.00
47104;BME280;32853;52.164;5.400;2022-11-23T03:21:36;99517.13;;;10.24;100.00
47104;BME280;32853;52.164;5.400;2022-11-23T03:24:02;99542.09;;;10.44;100.00
47104;BME280;32853;52.164;5.400;2022-11-23T03:26:27;99531.78;;;10.41;100.00
47104;BME280;32853;52.164;5.400;2022-11-23T03:28:52;99539.56;;;10.42;100.00
47104;BME280;32853;52.164;5.400;2022-11-23T03:31:18;99511.78;;;10.11;100.00
47104;BME280;32853;52.164;5.400;2022-11-23T03:33:43;99511.22;;;10.21;100.00
47104;BME280;32853;52.164;5.400;2022-11-23T03:36:08;99446.00;;;9.75;100.00
47104;BME280;32853;52.164;5.400;2022-11-23T03:38:34;99536.97;;;10.42;100.00
47104;BME280;32853;52.164;5.400;2022-11-23T03:40:59;99477.13;;;9.94;100.00
47104;BME280;32853;52.164;5.400;2022-11-23T03:43:24;99541.91;;;10.47;100.00
47104;BME280;32853;52.164;5.400;2022-11-23T03:45:50;99507.34;;;10.28;100.00
47104;BME280;32853;52.164;5.400;2022-11-23T03:48:27;99529.66;;;10.33;100.00
47104;BME280;32853;52.164;5.400;2022-11-23T03:50:57;99547.13;;;10.47;100.00
47104;BME280;32853;52.164;5.400;2022-11-23T03:53:22;99510.69;;;10.30;100.00
47104;BME280;32853;52.164;5.400;2022-11-23T03:55:47;99489.56;;;10.18;100.00
47104;BME280;32853;52.164;5.400;2022-11-23T03:58:14;99556.84;;;10.45;100.00
47104;BME280;32853;52.164;5.400;2022-11-23T04:00:55;99549.09;;;10.43;100.00
47104;BME280;32853;52.164;5.400;2022-11-23T04:03:25;99500.00;;;10.18;100.00
47104;BME280;32853;52.164;5.400;2022-11-23T04:05:53;99510.97;;;10.25;100.00
47104;BME280;32853;52.164;5.400;2022-11-23T04:08:27;99498.31;;;10.17;100.00
47104;BME280;32853;52.164;5.400;2022-11-23T04:10:56;99563.94;;;10.43;100.00
47104;BME280;32853;52.164;5.400;2022-11-23T04:13:22;99428.31;;;9.66;100.00
47104;BME280;32853;52.164;5.400;2022-11-23T04:15:55;99508.16;;;10.28;100.00
47104;BME280;32853;52.164;5.400;2022-11-23T04:18:20;99459.97;;;10.04;100.00
47104;BME280;32853;52.164;5.400;2022-11-23T04:20:59;99466.97;;;10.03;100.00
47104;BME280;32853;52.164;5.400;2022-11-23T04:23:34;99512.94;;;10.36;100.00
47104;BME280;32853;52.164;5.400;2022-11-23T04:25:59;99534.59;;;10.38;100.00
47104;BME280;32853;52.164;5.400;2022-11-23T04:28:28;99514.06;;;10.32;100.00
47104;BME280;32853;52.164;5.400;2022-11-23T04:30:55;99512.84;;;10.23;100.00
47104;BME280;32853;52.164;5.400;2022-11-23T04:33:23;99513.97;;;10.33;100.00
47104;BME280;32853;52.164;5.400;2022-11-23T04:35:48;99532.19;;;10.49;100.00
47104;BME280;32853;52.164;5.400;2022-11-23T04:38:13;99539.47;;;10.44;100.00
47104;BME280;32853;52.164;5.400;2022-11-23T04:40:47;99492.41;;;10.30;100.00
47104;BME280;32853;52.164;5.400;2022-11-23T04:43:13;99427.75;;;9.75;100.00
47104;BME280;32853;52.164;5.400;2022-11-23T04:45:39;99544.91;;;10.55;100.00
47104;BME280;32853;52.164;5.400;2022-11-23T04:48:05;99542.44;;;10.52;100.00
47104;BME280;32853;52.164;5.400;2022-11-23T04:50:30;99539.78;;;10.54;100.00
47104;BME280;32853;52.164;5.400;2022-11-23T04:52:56;99436.38;;;9.91;100.00
47104;BME280;32853;52.164;5.400;2022-11-23T04:55:21;99479.19;;;10.17;100.00
47104;BME280;32853;52.164;5.400;2022-11-23T04:57:57;99559.06;;;10.51;100.00
47104;BME280;32853;52.164;5.400;2022-11-23T05:00:28;99558.50;;;10.46;100.00
47104;BME280;32853;52.164;5.400;2022-11-23T05:02:53;99528.53;;;10.37;100.00
47104;BME280;32853;52.164;5.400;2022-11-23T05:05:18;99465.00;;;10.07;100.00
47104;BME280;32853;52.164;5.400;2022-11-23T05:07:44;99493.78;;;10.21;100.00
47104;BME280;32853;52.164;5.400;2022-11-23T05:10:09;99523.13;;;10.40;100.00
47104;BME280;32853;52.164;5.400;2022-11-23T05:12:41;99499.13;;;10.34;100.00
47104;BME280;32853;52.164;5.400;2022-11-23T05:15:06;99336.78;;;9.39;100.00
47104;BME280;32853;52.164;5.400;2022-11-23T05:17:48;99531.25;;;10.50;100.00
47104;BME280;32853;52.164;5.400;2022-11-23T05:20:13;99531.63;;;10.44;100.00
47104;BME280;32853;52.164;5.400;2022-11-23T05:22:38;99526.41;;;10.44;100.00
47104;BME280;32853;52.164;5.400;2022-11-23T05:25:10;99514.34;;;10.27;100.00
47104;BME280;32853;52.164;5.400;2022-11-23T05:27:35;99464.03;;;9.79;100.00
47104;BME280;32853;52.164;5.400;2022-11-23T05:30:01;99485.34;;;10.02;100.00
47104;BME280;32853;52.164;5.400;2022-11-23T05:32:27;99441.81;;;9.72;100.00
47104;BME280;32853;52.164;5.400;2022-11-23T05:34:53;99422.53;;;9.75;100.00
47104;BME280;32853;52.164;5.400;2022-11-23T05:37:22;99534.88;;;10.33;100.00
47104;BME280;32853;52.164;5.400;2022-11-23T05:39:47;99363.88;;;9.22;100.00
47104;BME280;32853;52.164;5.400;2022-11-23T05:42:15;99543.97;;;10.42;100.00
47104;BME280;32853;52.164;5.400;2022-11-23T05:44:49;99541.97;;;10.31;100.00
47104;BME280;32853;52.164;5.400;2022-11-23T05:47:18;99507.09;;;10.02;100.00
47104;BME280;32853;52.164;5.400;2022-11-23T05:49:43;99505.03;;;10.07;100.00
47104;BME280;32853;52.164;5.400;2022-11-23T05:52:17;99558.50;;;10.46;100.00
47104;BME280;32853;52.164;5.400;2022-11-23T05:54:49;99438.28;;;9.73;100.00
47104;BME280;32853;52.164;5.400;2022-11-23T05:57:15;99547.47;;;10.41;100.00
47104;BME280;32853;52.164;5.400;2022-11-23T05:59:42;99516.41;;;10.22;100.00
47104;BME280;32853;52.164;5.400;2022-11-23T06:02:07;99495.06;;;10.00;100.00
47104;BME280;32853;52.164;5.400;2022-11-23T06:04:33;99560.94;;;10.35;100.00
47104;BME280;32853;52.164;5.400;2022-11-23T06:07:00;99451.28;;;9.89;100.00
47104;BME280;32853;52.164;5.400;2022-11-23T06:09:28;99504.72;;;10.28;100.00
47104;BME280;32853;52.164;5.400;2022-11-23T06:11:54;99568.97;;;10.60;100.00
47104;BME280;32853;52.164;5.400;2022-11-23T06:14:42;99562.91;;;10.60;100.00
47104;BME280;32853;52.164;5.400;2022-11-23T06:17:08;99521.81;;;10.33;100.00
47104;BME280;32853;52.164;5.400;2022-11-23T06:19:33;99567.31;;;10.59;100.00
47104;BME280;32853;52.164;5.400;2022-11-23T06:21:59;99560.59;;;10.55;100.00
47104;BME280;32853;52.164;5.400;2022-11-23T06:24:25;99560.59;;;10.55;100.00
47104;BME280;32853;52.164;5.400;2022-11-23T06:26:51;99549.00;;;10.45;100.00
47104;BME280;32853;52.164;5.400;2022-11-23T06:29:18;99507.34;;;10.28;100.00
47104;BME280;32853;52.164;5.400;2022-11-23T06:31:44;99568.03;;;10.47;100.00
47104;BME280;32853;52.164;5.400;2022-11-23T06:34:10;99564.69;;;10.45;100.00
47104;BME280;32853;52.164;5.400;2022-11-23T06:36:35;99553.38;;;10.44;100.00
47104;BME280;32853;52.164;5.400;2022-11-23T06:39:00;99535.25;;;10.27;100.00
47104;BME280;32853;52.164;5.400;2022-11-23T06:41:34;99533.66;;;10.39;100.00
47104;BME280;32853;52.164;5.400;2022-11-23T06:44:00;99549.06;;;10.29;100.00
47104;BME280;32853;52.164;5.400;2022-11-23T06:46:32;99427.16;;;9.55;100.00
47104;BME280;32853;52.164;5.400;2022-11-23T06:48:57;99448.81;;;9.72;100.00
47104;BME280;32853;52.164;5.400;2022-11-23T06:51:23;99494.56;;;10.07;100.00
47104;BME280;32853;52.164;5.400;2022-11-23T06:53:49;99492.59;;;9.97;100.00
47104;BME280;32853;52.164;5.400;2022-11-23T06:56:15;99511.91;;;9.94;100.00
47104;BME280;32853;52.164;5.400;2022-11-23T06:58:55;99574.94;;;10.34;100.00
47104;BME280;32853;52.164;5.400;2022-11-23T07:01:21;99448.03;;;9.55;100.00
47104;BME280;32853;52.164;5.400;2022-11-23T07:03:53;99423.97;;;9.20;100.00
47104;BME280;32853;52.164;5.400;2022-11-23T07:06:20;99392.91;;;9.16;100.00
47104;BME280;32853;52.164;5.400;2022-11-23T07:08:54;99513.97;;;9.89;100.00
47104;BME280;32853;52.164;5.400;2022-11-23T07:11:20;99593.38;;;10.31;100.00
47104;BME280;32853;52.164;5.400;2022-11-23T07:13:46;99463.72;;;9.40;100.00
47104;BME280;32853;52.164;5.400;2022-11-23T07:16:11;99593.00;;;10.23;100.00
47104;BME280;32853;52.164;5.400;2022-11-23T07:18:36;99578.44;;;10.03;100.00
47104;BME280;32853;52.164;5.400;2022-11-23T07:21:07;99577.31;;;10.07;100.00
47104;BME280;32853;52.164;5.400;2022-11-23T07:23:33;99604.44;;;10.20;100.00
47104;BME280;32853;52.164;5.400;2022-11-23T07:26:02;99603.75;;;10.16;100.00
47104;BME280;32853;52.164;5.400;2022-11-23T07:28:28;99418.84;;;9.03;100.00
47104;BME280;32853;52.164;5.400;2022-11-23T07:30:53;99605.53;;;10.16;100.00
47104;BME280;32853;52.164;5.400;2022-11-23T07:33:23;99605.09;;;9.94;100.00
47104;BME280;32853;52.164;5.400;2022-11-23T07:35:49;99615.19;;;10.00;100.00
47104;BME280;32853;52.164;5.400;2022-11-23T07:38:18;99553.94;;;9.59;100.00
47104;BME280;32853;52.164;5.400;2022-11-23T07:40:47;99637.34;;;9.93;100.00
47104;BME280;32853;52.164;5.400;2022-11-23T07:43:15;99530.47;;;9.28;100.00
47104;BME280;32853;52.164;5.400;2022-11-23T07:45:47;99569.94;;;9.38;100.00
47104;BME280;32853;52.164;5.400;2022-11-23T07:48:30;99630.63;;;9.88;100.00
47104;BME280;32853;52.164;5.400;2022-11-23T07:50:55;99606.47;;;9.69;100.00
47104;BME280;32853;52.164;5.400;2022-11-23T07:53:21;99600.75;;;9.47;100.00
47104;BME280;32853;52.164;5.400;2022-11-23T07:55:48;99529.56;;;9.13;100.00
47104;BME280;32853;52.164;5.400;2022-11-23T07:58:16;99456.09;;;8.73;100.00
47104;BME280;32853;52.164;5.400;2022-11-23T08:00:42;99664.34;;;9.77;100.00
47104;BME280;32853;52.164;5.400;2022-11-23T08:03:12;99640.47;;;9.83;100.00
47104;BME280;32853;52.164;5.400;2022-11-23T08:05:37;99651.94;;;9.81;100.00
47104;BME280;32853;52.164;5.400;2022-11-23T08:08:07;99644.69;;;9.86;100.00
47104;BME280;32853;52.164;5.400;2022-11-23T08:10:32;99538.66;;;9.22;100.00
47104;BME280;32853;52.164;5.400;2022-11-23T08:13:09;99660.09;;;9.90;100.00
47104;BME280;32853;52.164;5.400;2022-11-23T08:15:36;99616.06;;;9.69;100.00
47104;BME280;32853;52.164;5.400;2022-11-23T08:18:02;99651.06;;;9.96;100.00
47104;BME280;32853;52.164;5.400;2022-11-23T08:20:29;99648.97;;;10.03;100.00
47104;BME280;32853;52.164;5.400;2022-11-23T08:22:56;99653.06;;;10.07;100.00
47104;BME280;32853;52.164;5.400;2022-11-23T08:25:23;99656.19;;;10.13;100.00
47104;BME280;32853;52.164;5.400;2022-11-23T08:27:59;99633.41;;;9.85;100.00
47104;BME280;32853;52.164;5.400;2022-11-23T08:30:34;99645.84;;;10.12;100.00
47104;BME280;32853;52.164;5.400;2022-11-23T08:33:06;99655.59;;;10.08;100.00
47104;BME280;32853;52.164;5.400;2022-11-23T08:35:34;99645.84;;;9.96;100.00
47104;BME280;32853;52.164;5.400;2022-11-23T08:38:09;99620.00;;;9.92;100.00
47104;BME280;32853;52.164;5.400;2022-11-23T08:40:36;99606.81;;;9.79;100.00
47104;BME280;32853;52.164;5.400;2022-11-23T08:43:02;99580.13;;;9.58;100.00
47104;BME280;32853;52.164;5.400;2022-11-23T08:45:28;99615.47;;;9.64;100.00
47104;BME280;32853;52.164;5.400;2022-11-23T08:47:53;99664.72;;;10.01;100.00
47104;BME280;32853;52.164;5.400;2022-11-23T08:50:19;99650.66;;;10.04;100.00
47104;BME280;32853;52.164;5.400;2022-11-23T08:52:45;99649.38;;;9.95;100.00
47104;BME280;32853;52.164;5.400;2022-11-23T08:55:12;99646.25;;;10.04;100.00
47104;BME280;32853;52.164;5.400;2022-11-23T08:57:44;99640.94;;;10.06;100.00
47104;BME280;32853;52.164;5.400;2022-11-23T09:00:12;99638.84;;;10.12;100.00
47104;BME280;32853;52.164;5.400;2022-11-23T09:02:38;99580.88;;;9.76;100.00
47104;BME280;32853;52.164;5.400;2022-11-23T09:05:13;99586.38;;;9.85;100.00
47104;BME280;32853;52.164;5.400;2022-11-23T09:07:39;99592.34;;;10.03;100.00
47104;BME280;32853;52.164;5.400;2022-11-23T09:10:26;99640.50;;;10.29;100.00
47104;BME280;32853;52.164;5.400;2022-11-23T09:13:05;99579.72;;;9.96;100.00
47104;BME280;32853;52.164;5.400;2022-11-23T09:15:30;99613.13;;;10.21;100.00
47104;BME280;32853;52.164;5.400;2022-11-23T09:17:56;99619.69;;;10.28;100.00
47104;BME280;32853;52.164;5.400;2022-11-23T09:20:26;99645.03;;;10.41;100.00
47104;BME280;32853;52.164;5.400;2022-11-23T09:22:53;99639.66;;;10.29;100.00
47104;BME280;32853;52.164;5.400;2022-11-23T09:25:20;99600.13;;;10.19;100.00
47104;BME280;32853;52.164;5.400;2022-11-23T09:27:47;99639.16;;;10.52;100.00
47104;BME280;32853;52.164;5.400;2022-11-23T09:30:35;99635.28;;;10.59;100.00
47104;BME280;32853;52.164;5.400;2022-11-23T09:33:12;99623.97;;;10.59;100.00
47104;BME280;32853;52.164;5.400;2022-11-23T09:35:38;99632.94;;;10.55;100.00
47104;BME280;32853;52.164;5.400;2022-11-23T09:38:06;99589.56;;;10.36;100.00
47104;BME280;32853;52.164;5.400;2022-11-23T09:40:39;99599.06;;;10.53;100.00
47104;BME280;32853;52.164;5.400;2022-11-23T09:46:46;99629.13;;;10.74;100.00
47104;BME280;32853;52.164;5.400;2022-11-23T09:49:26;99541.41;;;10.40;100.00
47104;BME280;32853;52.164;5.400;2022-11-23T09:51:55;99581.03;;;10.77;100.00
47104;BME280;32853;52.164;5.400;2022-11-23T09:54:33;99619.25;;;10.94;100.00
47104;BME280;32853;52.164;5.400;2022-11-23T09:57:02;99614.69;;;10.97;100.00
47104;BME280;32853;52.164;5.400;2022-11-23T09:59:43;99618.50;;;11.06;100.00
47104;BME280;32853;52.164;5.400;2022-11-23T10:02:25;99607.19;;;11.05;100.00
47104;BME280;32853;52.164;5.400;2022-11-23T10:04:57;99539.84;;;10.81;100.00
47104;BME280;32853;52.164;5.400;2022-11-23T10:16:27;99589.88;;;11.17;100.00
47104;BME280;32853;52.164;5.400;2022-11-23T10:21:45;99576.53;;;11.22;100.00
47104;BME280;32853;52.164;5.400;2022-11-23T10:24:31;99584.50;;;11.20;100.00
47104;BME280;32853;52.164;5.400;2022-11-23T10:26:57;99567.16;;;11.32;100.00
47104;BME280;32853;52.164;5.400;2022-11-23T10:31:51;99507.75;;;11.05;100.00
47104;BME280;32853;52.164;5.400;2022-11-23T10:37:11;99574.34;;;11.43;100.00
47104;BME280;32853;52.164;5.400;2022-11-23T10:39:46;99512.16;;;11.05;100.00
47104;BME280;32853;52.164;5.400;2022-11-23T10:42:35;99575.97;;;11.58;100.00
47104;BME280;32853;52.164;5.400;2022-11-23T10:45:05;99555.19;;;11.28;100.00
47104;BME280;32853;52.164;5.400;2022-11-23T10:54:05;99561.38;;;11.27;100.00
47104;BME280;32853;52.164;5.400;2022-11-23T10:56:45;99581.09;;;11.32;100.00
47104;BME280;32853;52.164;5.400;2022-11-23T10:59:29;99568.84;;;11.33;100.00
47104;BME280;32853;52.164;5.400;2022-11-23T11:02:19;99574.34;;;11.43;100.00
47104;BME280;32853;52.164;5.400;2022-11-23T11:04:46;99517.84;;;11.12;100.00
47104;BME280;32853;52.164;5.400;2022-11-23T11:07:26;99393.28;;;10.41;100.00
47104;BME280;32853;52.164;5.400;2022-11-23T11:09:59;99535.41;;;11.24;100.00
47104;BME280;32853;52.164;5.400;2022-11-23T11:12:26;99563.09;;;11.55;100.00
47104;BME280;32853;52.164;5.400;2022-11-23T11:15:02;99557.13;;;11.39;100.00
47104;BME280;32853;52.164;5.400;2022-11-23T11:17:32;99594.03;;;11.48;100.00
47104;BME280;32853;52.164;5.400;2022-11-23T11:23:38;99575.28;;;11.27;100.00
47104;BME280;32853;52.164;5.400;2022-11-23T11:35:36;99549.72;;;11.04;100.00
47104;BME280;32853;52.164;5.400;2022-11-23T11:38:20;99564.03;;;11.13;100.00
47104;BME280;32853;52.164;5.400;2022-11-23T11:40:48;99443.03;;;10.39;100.00
47104;BME280;32853;52.164;5.400;2022-11-23T11:43:45;99566.16;;;11.20;100.00
47104;BME280;32853;52.164;5.400;2022-11-23T11:46:24;99564.03;;;11.13;100.00
47104;BME280;32853;52.164;5.400;2022-11-23T11:49:06;99535.13;;;11.14;100.00
47104;BME280;32853;52.164;5.400;2022-11-23T11:51:42;99551.38;;;11.33;100.00
47104;BME280;32853;52.164;5.400;2022-11-23T11:54:50;99528.91;;;11.44;100.00
47104;BME280;32853;52.164;5.400;2022-11-23T11:57:23;99461.72;;;11.03;100.00
47104;BME280;32853;52.164;5.400;2022-11-23T11:59:59;99454.59;;;11.05;100.00
47104;BME280;32853;52.164;5.400;2022-11-23T12:02:43;99525.59;;;11.54;100.00
47104;BME280;32853;52.164;5.400;2022-11-23T12:05:24;99521.28;;;11.80;100.00
47104;BME280;32853;52.164;5.400;2022-11-23T12:08:10;99508.94;;;11.95;100.00
47104;BME280;32853;52.164;5.400;2022-11-23T12:10:42;99451.97;;;11.59;100.00
47104;BME280;32853;52.164;5.400;2022-11-23T12:13:26;99342.91;;;10.93;100.00
47104;BME280;32853;52.164;5.400;2022-11-23T12:29:51;99500.38;;;12.06;100.00
47104;BME280;32853;52.164;5.400;2022-11-23T12:32:24;99450.31;;;11.71;100.00
47104;BME280;32853;52.164;5.400;2022-11-23T12:40:50;99376.00;;;11.06;100.00
47104;BME280;32853;52.164;5.400;2022-11-23T12:43:24;99488.09;;;11.81;100.00
47104;BME280;32853;52.164;5.400;2022-11-23T12:46:13;99385.53;;;11.34;100.00
47104;BME280;32853;52.164;5.400;2022-11-23T12:56:55;99460.34;;;12.04;100.00
47104;BME280;32853;52.164;5.400;2022-11-23T12:59:41;99472.09;;;12.11;100.00
47104;BME280;32853;52.164;5.400;2022-11-23T13:02:13;99469.97;;;12.03;100.00
47104;BME280;32853;52.164;5.400;2022-11-23T13:13:47;99442.94;;;12.15;100.00
47104;BME280;32853;52.164;5.400;2022-11-23T13:16:54;99466.53;;;12.28;100.00
47104;BME280;32853;52.164;5.400;2022-11-23T13:22:16;99460.78;;;12.23;100.00
47104;BME280;32853;52.164;5.400;2022-11-23T13:30:34;99454.88;;;12.07;100.00
47104;BME280;32853;52.164;5.400;2022-11-23T13:40:42;99308.63;;;10.97;100.00
47104;BME280;32853;52.164;5.400;2022-11-23T13:43:28;99486.03;;;12.11;100.00
47104;BME280;32853;52.164;5.400;2022-11-23T13:46:24;99503.53;;;12.11;100.00
47104;BME280;32853;52.164;5.400;2022-11-23T13:48:55;99483.81;;;11.92;100.00
47104;BME280;32853;52.164;5.400;2022-11-23T13:51:30;99499.53;;;12.05;100.00
47104;BME280;32853;52.164;5.400;2022-11-23T13:54:05;99501.31;;;12.17;100.00
47104;BME280;32853;52.164;5.400;2022-11-23T13:56:42;99509.91;;;11.94;100.00
47104;BME280;32853;52.164;5.400;2022-11-23T14:04:35;99515.50;;;11.48;100.00
47104;BME280;32853;52.164;5.400;2022-11-23T14:07:13;99523.34;;;11.48;100.00
47104;BME280;32853;52.164;5.400;2022-11-23T14:10:00;99513.72;;;11.49;100.00
47104;BME280;32853;52.164;5.400;2022-11-23T14:12:35;99508.91;;;11.01;100.00
47104;BME280;32853;52.164;5.400;2022-11-23T14:15:17;99458.88;;;10.79;100.00
47104;BME280;32853;52.164;5.400;2022-11-23T14:41:08;99548.63;;;10.94;100.00
47104;BME280;32853;52.164;5.400;2022-11-23T14:43:40;99552.63;;;10.42;100.00
47104;BME280;32853;52.164;5.400;2022-11-23T14:46:19;99531.25;;;10.50;100.00
47104;BME280;32853;52.164;5.400;2022-11-23T14:48:46;99511.06;;;10.52;100.00
47104;BME280;32853;52.164;5.400;2022-11-23T14:51:28;99546.00;;;10.80;100.00
47104;BME280;32853;52.164;5.400;2022-11-23T14:53:57;99544.06;;;10.55;100.00
47104;BME280;32853;52.164;5.400;2022-11-23T14:56:40;99565.53;;;10.74;100.00
47104;BME280;32853;52.164;5.400;2022-11-23T14:59:34;99542.72;;;10.62;100.00
47104;BME280;32853;52.164;5.400;2022-11-23T15:02:35;99558.22;;;10.51;100.00
47104;BME280;32853;52.164;5.400;2022-11-23T15:05:16;99560.03;;;10.79;100.00
47104;BME280;32853;52.164;5.400;2022-11-23T15:08:01;99539.81;;;10.38;100.00
47104;BME280;32853;52.164;5.400;2022-11-23T15:10:39;99557.28;;;10.52;100.00
47104;BME280;32853;52.164;5.400;2022-11-23T15:16:09;99571.78;;;10.57;100.00
47104;BME280;32853;52.164;5.400;2022-11-23T15:18:37;99462.47;;;9.91;100.00
47104;BME280;32853;52.164;5.400;2022-11-23T15:21:16;99522.06;;;10.29;100.00